Test XHTML 1.0 Strict Page for WU-History Testing
Station Historical Data
 
Daily Summary for July 30, 2014 Units:  Both    English   Metric
« Previous Day
Next Day »
Daily Weekly Monthly Yearly Custom
  Current: High: Low: Average:
Temperature: 59.4 °F /  15.2 °C 59.4 °F /  15.2 °C 56.3 °F /  13.5 °C 58.2 °F /  14.6 °C
Dew Point: 55.2 °F /  12.9 °C 57.6 °F /  14.2 °C 53.4 °F /  11.9 °C 55.7 °F /  13.2 °C
Humidity: 86% 96% 85% 92%
Wind Speed: 0.0mph /  0km/h 5.8mph /  9.3km/h - 0.6mph /  1km/h
Wind Gust: 0.0mph /  0km/h 5.8mph /  9.3km/h - -
WindCalm - - SW
Pressure: 30.00 in /  1015.8 hPa 30.05 in /  1017.5 hPa 30.00 in /  1015.8 hPa -
Precipitation: 0.00 in /  0 mm      
Historical Graphs
 
 
Weather-Above Climate History
Untitled
Tabular Data for July 30, 2014
Time Temperature Dew Point Pressure Wind Wind Speed Wind Gust Humidity Rainfall Rate (Hourly)
00:04 57.2 °F /  14 °C 55.2 °F /  12.9 °C 30.05in /  1017.5hPa Calm     93% 0.00in /  0cm
00:09 57.6 °F /  14.2 °C 55.6 °F /  13.1 °C 30.05in /  1017.5hPa Calm     93% 0.00in /  0cm
00:14 57.7 °F /  14.3 °C 55.4 °F /  13 °C 30.04in /  1017.2hPa Calm     92% 0.00in /  0cm
00:19 57.9 °F /  14.4 °C 55.6 °F /  13.1 °C 30.05in /  1017.5hPa Calm     92% 0.00in /  0cm
00:24 58.1 °F /  14.5 °C 55.8 °F /  13.2 °C 30.04in /  1017.2hPa Calm     92% 0.00in /  0cm
00:29 58.1 °F /  14.5 °C 55.8 °F /  13.2 °C 30.04in /  1017.2hPa Calm     92% 0.00in /  0cm
00:34 58.1 °F /  14.5 °C 55.8 °F /  13.2 °C 30.04in /  1017.2hPa Calm     92% 0.00in /  0cm
00:39 58.1 °F /  14.5 °C 55.8 °F /  13.2 °C 30.04in /  1017.2hPa Calm     92% 0.00in /  0cm
00:44 58.1 °F /  14.5 °C 55.5 °F /  13.1 °C 30.04in /  1017.2hPa Calm     91% 0.00in /  0cm
00:49 58.1 °F /  14.5 °C 55.8 °F /  13.2 °C 30.04in /  1017.2hPa Calm     92% 0.00in /  0cm
00:54 58.1 °F /  14.5 °C 55.8 °F /  13.2 °C 30.04in /  1017.2hPa Calm     92% 0.00in /  0cm
00:59 58.1 °F /  14.5 °C 55.5 °F /  13.1 °C 30.04in /  1017.2hPa Calm     91% 0.00in /  0cm
01:04 58.1 °F /  14.5 °C 55.8 °F /  13.2 °C 30.04in /  1017.2hPa Calm     92% 0.00in /  0cm
01:09 58.1 °F /  14.5 °C 55.8 °F /  13.2 °C 30.04in /  1017.2hPa Calm     92% 0.00in /  0cm
01:14 58.3 °F /  14.6 °C 55.7 °F /  13.2 °C 30.03in /  1016.8hPa Calm     91% 0.00in /  0cm
01:19 58.3 °F /  14.6 °C 56.0 °F /  13.3 °C 30.03in /  1016.8hPa Calm     92% 0.00in /  0cm
01:24 58.5 °F /  14.7 °C 56.1 °F /  13.4 °C 30.03in /  1016.8hPa Calm     92% 0.00in /  0cm
01:29 58.5 °F /  14.7 °C 56.1 °F /  13.4 °C 30.03in /  1016.8hPa Calm     92% 0.00in /  0cm
01:34 58.6 °F /  14.8 °C 56.6 °F /  13.7 °C 30.03in /  1016.8hPa Calm     93% 0.00in /  0cm
01:39 58.8 °F /  14.9 °C 57.1 °F /  13.9 °C 30.03in /  1016.8hPa West 2.3mph /  3.7km/h   94% 0.00in /  0cm
01:44 58.8 °F /  14.9 °C 56.8 °F /  13.8 °C 30.03in /  1016.8hPa Calm     93% 0.00in /  0cm
01:49 59.0 °F /  15 °C 57.3 °F /  14.1 °C 30.03in /  1016.8hPa Calm     94% 0.00in /  0cm
01:54 59.0 °F /  15 °C 57.3 °F /  14.1 °C 30.03in /  1016.8hPa Calm     94% 0.00in /  0cm
01:59 58.8 °F /  14.9 °C 57.1 °F /  13.9 °C 30.03in /  1016.8hPa Calm     94% 0.00in /  0cm
02:04 59.0 °F /  15 °C 57.3 °F /  14.1 °C 30.03in /  1016.8hPa Calm     94% 0.00in /  0cm
02:09 59.0 °F /  15 °C 57.3 °F /  14.1 °C 30.03in /  1016.8hPa Calm     94% 0.00in /  0cm
02:14 58.8 °F /  14.9 °C 57.1 °F /  13.9 °C 30.03in /  1016.8hPa Calm     94% 0.00in /  0cm
02:19 59.0 °F /  15 °C 57.6 °F /  14.2 °C 30.03in /  1016.8hPa Calm     95% 0.00in /  0cm
02:24 58.8 °F /  14.9 °C 57.4 °F /  14.1 °C 30.03in /  1016.8hPa Calm     95% 0.00in /  0cm
02:29 58.8 °F /  14.9 °C 57.4 °F /  14.1 °C 30.02in /  1016.5hPa WNW 1.2mph /  1.9km/h   95% 0.00in /  0cm
02:34 59.0 °F /  15 °C 57.6 °F /  14.2 °C 30.02in /  1016.5hPa Calm     95% 0.00in /  0cm
02:39 59.0 °F /  15 °C 57.6 °F /  14.2 °C 30.03in /  1016.8hPa Calm     95% 0.00in /  0cm
02:44 59.0 °F /  15 °C 57.6 °F /  14.2 °C 30.02in /  1016.5hPa Calm     95% 0.00in /  0cm
02:49 59.0 °F /  15 °C 57.6 °F /  14.2 °C 30.03in /  1016.8hPa Calm     95% 0.00in /  0cm
02:54 59.0 °F /  15 °C 57.6 °F /  14.2 °C 30.03in /  1016.8hPa West 2.3mph /  3.7km/h   95% 0.00in /  0cm
02:59 59.0 °F /  15 °C 57.6 °F /  14.2 °C 30.02in /  1016.5hPa Calm     95% 0.00in /  0cm
03:04 59.0 °F /  15 °C 57.6 °F /  14.2 °C 30.02in /  1016.5hPa West 2.3mph /  3.7km/h 2.3mph /  3.7km/h 95% 0.00in /  0cm
03:09 59.0 °F /  15 °C 57.3 °F /  14.1 °C 30.02in /  1016.5hPa Calm     94% 0.00in /  0cm
03:14 59.0 °F /  15 °C 57.3 °F /  14.1 °C 30.02in /  1016.5hPa NNE 1.5mph /  2.4km/h 1.5mph /  2.4km/h 94% 0.00in /  0cm
03:19 58.6 °F /  14.8 °C 56.6 °F /  13.7 °C 30.02in /  1016.5hPa Calm     93% 0.00in /  0cm
03:24 57.9 °F /  14.4 °C 56.2 °F /  13.4 °C 30.02in /  1016.5hPa Calm     94% 0.00in /  0cm
03:29 57.7 °F /  14.3 °C 56.3 °F /  13.5 °C 30.02in /  1016.5hPa SW 0.5mph /  0.8km/h 0.5mph /  0.8km/h 95% 0.00in /  0cm
03:34 57.9 °F /  14.4 °C 56.5 °F /  13.6 °C 30.01in /  1016.1hPa Calm     95% 0.00in /  0cm
03:39 57.9 °F /  14.4 °C 56.8 °F /  13.8 °C 30.01in /  1016.1hPa Calm     96% 0.00in /  0cm
03:44 58.1 °F /  14.5 °C 56.7 °F /  13.7 °C 30.01in /  1016.1hPa Calm   0.1mph /  0.2km/h 95% 0.00in /  0cm
03:49 58.3 °F /  14.6 °C 57.1 °F /  13.9 °C 30.01in /  1016.1hPa Calm     96% 0.00in /  0cm
03:54 58.3 °F /  14.6 °C 57.1 °F /  13.9 °C 30.00in /  1015.8hPa Calm     96% 0.00in /  0cm
03:59 58.5 °F /  14.7 °C 57.0 °F /  13.9 °C 30.00in /  1015.8hPa Calm     95% 0.00in /  0cm
04:04 58.5 °F /  14.7 °C 57.0 °F /  13.9 °C 30.00in /  1015.8hPa South 2.3mph /  3.7km/h 2.3mph /  3.7km/h 95% 0.00in /  0cm
04:09 58.6 °F /  14.8 °C 56.9 °F /  13.8 °C 30.00in /  1015.8hPa South 2.3mph /  3.7km/h   94% 0.00in /  0cm
04:14 58.6 °F /  14.8 °C 56.9 °F /  13.8 °C 30.00in /  1015.8hPa Calm     94% 0.00in /  0cm
04:19 58.6 °F /  14.8 °C 57.2 °F /  14 °C 30.00in /  1015.8hPa Calm   0.3mph /  0.5km/h 95% 0.00in /  0cm
04:24 58.6 °F /  14.8 °C 56.9 °F /  13.8 °C 30.00in /  1015.8hPa Calm     94% 0.00in /  0cm
04:29 58.8 °F /  14.9 °C 56.8 °F /  13.8 °C 30.00in /  1015.8hPa Calm     93% 0.00in /  0cm
04:34 58.6 °F /  14.8 °C 56.3 °F /  13.5 °C 30.00in /  1015.8hPa Calm   0.1mph /  0.2km/h 92% 0.00in /  0cm
04:39 58.6 °F /  14.8 °C 56.3 °F /  13.5 °C 30.00in /  1015.8hPa Calm     92% 0.00in /  0cm
04:44 58.1 °F /  14.5 °C 55.5 °F /  13.1 °C 30.00in /  1015.8hPa South 1.5mph /  2.4km/h 1.5mph /  2.4km/h 91% 0.00in /  0cm
04:49 57.9 °F /  14.4 °C 55.3 °F /  12.9 °C 30.00in /  1015.8hPa West 4.6mph /  7.4km/h 4.6mph /  7.4km/h 91% 0.00in /  0cm
04:54 57.9 °F /  14.4 °C 55.0 °F /  12.8 °C 30.00in /  1015.8hPa Calm     90% 0.00in /  0cm
04:59 57.7 °F /  14.3 °C 54.8 °F /  12.7 °C 30.00in /  1015.8hPa WSW 4.6mph /  7.4km/h 4.6mph /  7.4km/h 90% 0.00in /  0cm
05:01 57.7 °F /  14.3 °C 54.8 °F /  12.7 °C 30.00in /  1015.8hPa WSW 1.2mph /  1.9km/h   90% 0.00in /  0cm
05:02 57.7 °F /  14.3 °C 54.8 °F /  12.7 °C 30.00in /  1015.8hPa Calm     90% 0.00in /  0cm
05:03 57.7 °F /  14.3 °C 54.8 °F /  12.7 °C 30.00in /  1015.8hPa Calm     90% 0.00in /  0cm
05:05 57.9 °F /  14.4 °C 55.0 °F /  12.8 °C 30.00in /  1015.8hPa Calm     90% 0.00in /  0cm
05:06 57.9 °F /  14.4 °C 55.0 °F /  12.8 °C 30.00in /  1015.8hPa Calm     90% 0.00in /  0cm
05:11 57.7 °F /  14.3 °C 54.5 °F /  12.5 °C 30.00in /  1015.8hPa Calm     89% 0.00in /  0cm
05:16 57.7 °F /  14.3 °C 54.5 °F /  12.5 °C 30.00in /  1015.8hPa Calm     89% 0.00in /  0cm
05:21 57.7 °F /  14.3 °C 54.5 °F /  12.5 °C 30.00in /  1015.8hPa Calm     89% 0.00in /  0cm
05:26 57.6 °F /  14.2 °C 54.0 °F /  12.2 °C 30.00in /  1015.8hPa WNW 2.3mph /  3.7km/h 2.3mph /  3.7km/h 88% 0.00in /  0cm
05:31 57.6 °F /  14.2 °C 54.0 °F /  12.2 °C 30.00in /  1015.8hPa Calm     88% 0.00in /  0cm
05:36 57.4 °F /  14.1 °C 53.9 °F /  12.2 °C 30.00in /  1015.8hPa Calm     88% 0.00in /  0cm
05:41 57.2 °F /  14 °C 53.7 °F /  12.1 °C 30.00in /  1015.8hPa West 3.5mph /  5.6km/h 3.5mph /  5.6km/h 88% 0.00in /  0cm
05:46 57.2 °F /  14 °C 53.7 °F /  12.1 °C 30.00in /  1015.8hPa Calm     88% 0.00in /  0cm
05:51 57.0 °F /  13.9 °C 53.5 °F /  11.9 °C 30.00in /  1015.8hPa WSW 1.4mph /  2.3km/h 1.4mph /  2.3km/h 88% 0.00in /  0cm
05:56 57.0 °F /  13.9 °C 53.5 °F /  11.9 °C 30.00in /  1015.8hPa Calm     88% 0.00in /  0cm
06:01 57.6 °F /  14.2 °C 53.7 °F /  12.1 °C 30.00in /  1015.8hPa Calm     87% 0.00in /  0cm
06:07 57.7 °F /  14.3 °C 54.2 °F /  12.3 °C 30.00in /  1015.8hPa Calm     88% 0.00in /  0cm
06:12 57.9 °F /  14.4 °C 54.4 °F /  12.4 °C 30.00in /  1015.8hPa Calm     88% 0.00in /  0cm
06:17 57.9 °F /  14.4 °C 54.4 °F /  12.4 °C 30.00in /  1015.8hPa Calm     88% 0.00in /  0cm
06:22 57.6 °F /  14.2 °C 54.0 °F /  12.2 °C 30.00in /  1015.8hPa Calm     88% 0.00in /  0cm
06:27 56.7 °F /  13.7 °C 53.8 °F /  12.1 °C 30.00in /  1015.8hPa Calm     90% 0.00in /  0cm
06:32 56.3 °F /  13.5 °C 53.4 °F /  11.9 °C 30.00in /  1015.8hPa Calm     90% 0.00in /  0cm
06:37 56.5 °F /  13.6 °C 53.9 °F /  12.2 °C 30.00in /  1015.8hPa Calm   0.1mph /  0.2km/h 91% 0.00in /  0cm
06:42 56.5 °F /  13.6 °C 53.9 °F /  12.2 °C 30.00in /  1015.8hPa Calm     91% 0.00in /  0cm
06:47 56.8 °F /  13.8 °C 54.2 °F /  12.3 °C 30.00in /  1015.8hPa Calm     91% 0.00in /  0cm
06:52 56.8 °F /  13.8 °C 54.2 °F /  12.3 °C 30.00in /  1015.8hPa Calm     91% 0.00in /  0cm
06:57 56.8 °F /  13.8 °C 54.2 °F /  12.3 °C 30.00in /  1015.8hPa Calm     91% 0.00in /  0cm
07:02 57.0 °F /  13.9 °C 54.4 °F /  12.4 °C 30.00in /  1015.8hPa Calm     91% 0.00in /  0cm
07:07 57.7 °F /  14.3 °C 55.1 °F /  12.8 °C 30.00in /  1015.8hPa WNW 1.2mph /  1.9km/h 1.2mph /  1.9km/h 91% 0.00in /  0cm
07:12 58.5 °F /  14.7 °C 55.5 °F /  13.1 °C 30.00in /  1015.8hPa Calm     90% 0.00in /  0cm
07:17 58.6 °F /  14.8 °C 55.1 °F /  12.8 °C 30.00in /  1015.8hPa WSW 3.5mph /  5.6km/h 3.5mph /  5.6km/h 88% 0.00in /  0cm
07:22 58.6 °F /  14.8 °C 55.4 °F /  13 °C 30.00in /  1015.8hPa Calm     89% 0.00in /  0cm
07:27 58.8 °F /  14.9 °C 55.0 °F /  12.8 °C 30.01in /  1016.1hPa West 5.8mph /  9.3km/h 5.8mph /  9.3km/h 87% 0.00in /  0cm
07:32 58.8 °F /  14.9 °C 55.0 °F /  12.8 °C 30.00in /  1015.8hPa Calm     87% 0.00in /  0cm
07:37 59.0 °F /  15 °C 54.8 °F /  12.7 °C 30.00in /  1015.8hPa West 3.5mph /  5.6km/h   86% 0.00in /  0cm
07:42 59.0 °F /  15 °C 54.8 °F /  12.7 °C 30.00in /  1015.8hPa NE 4.6mph /  7.4km/h   86% 0.00in /  0cm
07:47 59.2 °F /  15.1 °C 55.0 °F /  12.8 °C 30.00in /  1015.8hPa SW 2.3mph /  3.7km/h 2.3mph /  3.7km/h 86% 0.00in /  0cm
07:52 59.2 °F /  15.1 °C 54.7 °F /  12.6 °C 30.00in /  1015.8hPa SW 2.3mph /  3.7km/h 2.3mph /  3.7km/h 85% 0.00in /  0cm
07:57 59.4 °F /  15.2 °C 55.2 °F /  12.9 °C 30.00in /  1015.8hPa Calm     86% 0.00in /  0cm
Wether-Above
Compliments of Weather Underground
Welcome to Weather-Above
Cheddleton weather station supplies various organisations with data from our weather station one of them is the weather Underground this information displayed here is coming from the weather Underground server 

If any information is used please acknowledge the source to www weather-above.com or weather Underground